Finikia — YKRO — position and weather

sailwx.info

Track history (hours):
 
Tides and Currents Weather Stations Pressure Air Temp Water Temp Dewpoint Dewpoint Depression Visibility Wind Speed Wind Dir Waves Ship Positions

Finikia

Last reported at 2014-Dec-18 13:30 UTC. Time now 2014-Dec-18 23:06 UTC.
Position N 37°04' E 026°30'.

Length 138 m; draft 8 m.

Type: Cargo ship. MMSI: 468395000.

Date/timePositionNaut miles runAvg speedWind from/ knotsBaromVisibWave heightAir tempDewpointWater temp
2014-Dec-18 13:30N 37°04' E 026°30'1312.5
2014-Dec-18 12:26N 37°13' E 026°18'1212.3
2014-Dec-18 11:26N 37°21' E 026°07'1112.0
2014-Dec-18 10:32N 37°29' E 025°57'1312.2
2014-Dec-18 09:29N 37°41' E 025°52'1211.9
2014-Dec-18 08:27N 37°53' E 025°48'11511.6
2014-Dec-17 22:30N 39°48' E 025°46'5810.8
2014-Dec-17 17:09N 40°25' E 026°43'6 9.5
2014-Dec-17 16:32N 40°28' E 026°50'85 5.3
2014-Dec-17 00:31N 40°53' E 028°37'1110.9
2014-Dec-16 23:32N 40°55' E 028°51'3 2.7
2014-Dec-16 22:32N 40°57' E 028°54'0 0.0
2014-Dec-16 21:26N 40°57' E 028°54'0 0.0
2014-Dec-16 20:32N 40°57' E 028°54'5 4.6
2014-Dec-16 19:33N 40°59' E 028°59'  
Track history (hours):
 
Tides and Currents Weather Stations Pressure Air Temp Water Temp Dewpoint Dewpoint Depression Visibility Wind Speed Wind Dir Waves Ship Positions

Finikia

Last reported at 2014-Dec-18 13:30 UTC. Time now 2014-Dec-18 23:06 UTC.
Position N 37°04' E 026°30'.

Length 138 m; draft 8 m.

Type: Cargo ship. MMSI: 468395000.

Date/timePositionNaut miles runAvg speedWind from/ knotsBaromVisibWave heightAir tempDewpointWater temp
2014-Dec-18 13:30N 37°04' E 026°30'1312.5
2014-Dec-18 12:26N 37°13' E 026°18'1212.3
2014-Dec-18 11:26N 37°21' E 026°07'1112.0
2014-Dec-18 10:32N 37°29' E 025°57'1312.2
2014-Dec-18 09:29N 37°41' E 025°52'1211.9
2014-Dec-18 08:27N 37°53' E 025°48'11511.6
2014-Dec-17 22:30N 39°48' E 025°46'5810.8
2014-Dec-17 17:09N 40°25' E 026°43'6 9.5
2014-Dec-17 16:32N 40°28' E 026°50'85 5.3
2014-Dec-17 00:31N 40°53' E 028°37'1110.9
2014-Dec-16 23:32N 40°55' E 028°51'3 2.7
2014-Dec-16 22:32N 40°57' E 028°54'0 0.0
2014-Dec-16 21:26N 40°57' E 028°54'0 0.0
2014-Dec-16 20:32N 40°57' E 028°54'5 4.6
2014-Dec-16 19:33N 40°59' E 028°59'  

Dump ship's entire track history